LFLB/CMF METAR and TAF weather

Enter ICAO airport designator
Station Type Date Time Source
LFLB METAR 2020/07/15 01:00 UTC NOAA

LFLB 150100Z AUTO 00000KT CAVOK 14/10 Q1015 NOSIG


Station Type Date Time Source
LFLB Decoded METAR 2020/07/15 01:00 UTC NOAA

Chambery / Aix-Les-Bains, France (LFLB) 45-39N 005-53E 239M
Jul 14, 2020 - 09:00 PM EDT / 2020.07.15 0100 UTC
Wind: Calm:0
Visibility: greater than 7 mile(s):0
Temperature: 57 F (14 C)
Dew Point: 50 F (10 C)
Relative Humidity: 76%
Pressure (altimeter): 29.97 in. Hg (1015 hPa)
ob: LFLB 150100Z AUTO 00000KT CAVOK 14/10 Q1015 NOSIG
cycle: 1

Station Type Date Time Source
LFLB TAF 2020/07/14 19:12 UTC NOAA

TAF TAF LFLB 141904Z 1419/1512 CNL

Example: see airport list